Latest Coastal Weather Observations for Cape Naturaliste

IDW60701

Issued at 7:55 pm WST Wednesday 23 July 2014 (issued every 10 minutes, with the page automatically refreshed every 10 minutes)

About coastal observations | Map of coastal stations | Coastal observations for WA | Marine services | Other Formats
Station Details ID: 009519 Name: CAPE NATURALISTE Lat: -33.54 Lon: 115.02 Height: 109.0 m
Data from the previous 72 hours. | See also: Recent months at Cape Naturaliste
Date/Time
WST
Temp

°C
Wind Pressure Rain
since 9am
mm
Weather Cloud Vis
km
Sea
Height
m
Swell
Dir
 
Speed
knots
Gust
knots
hPa Trend Height
m
Period
s
Dir
23/07:30pm 14.8 W 16 20 1019.0 - 1.6 - - - - - - -
23/07:00pm 14.5 W 17 24 1018.9 - 1.6 - - - - - - -
23/06:30pm 14.5 W 17 23 1018.8 - 1.6 - - - - - - -
23/06:00pm 13.9 W 15 18 1018.7 - 1.6 - - - - - - -
23/05:30pm 14.1 W 15 21 1018.6 - 1.6 - - - - - - -
23/05:00pm 14.1 WNW 11 15 1018.6 - 1.6 - - - - - - -
23/04:30pm 14.5 WNW 13 17 1018.4 - 1.6 - - - - - - -
23/04:00pm 14.7 NW 11 14 1018.4 - 1.6 - - - - - - -
23/03:30pm 15.1 WNW 11 15 1018.6 - 1.6 - - - - - - -
23/03:00pm 15.3 WNW 15 20 1018.4 - 1.6 Recent precip. - - - - - -
23/02:30pm 14.7 W 7 13 1018.7 - 1.4 - - - - - - -
23/02:00pm 13.3 WNW 13 19 1018.9 - 0.4 - - - - - - -
23/01:30pm 15.7 W 9 12 1019.1 - 0.2 - - - - - - -
23/01:00pm 14.6 W 11 16 1019.4 - 0.2 - - - - - - -
23/12:30pm 15.3 WSW 12 17 1019.8 - 0.2 - - - - - - -
23/12:00pm 15.4 W 13 16 1020.3 - 0.2 - - - - - - -
23/11:30am 15.6 WSW 11 15 1020.7 - 0.2 - - - - - - -
23/11:00am 12.9 WSW 7 11 1021.0 - 0.2 - - - - - - -
23/10:30am 14.1 WNW 12 16 1021.3 - 0.0 - - - - - - -
23/10:00am 13.4 W 6 8 1021.4 - 0.0 - - - - - - -
23/09:30am 13.5 SW 9 12 1021.3 - 0.0 - - - - - - -
23/09:00am 13.1 WSW 8 13 1021.5 - 3.6 - - - - - - -
23/08:30am 11.6 WSW 8 11 1021.2 - 3.6 - - - - - - -
23/08:00am 10.6 WSW 7 9 1020.9 - 3.6 - - - - - - -
23/07:30am 10.9 W 10 16 1020.6 - 3.6 - - - - - - -
23/07:00am 10.7 WNW 10 13 1020.5 - 3.6 - - - - - - -
23/06:30am 10.3 W 9 11 1020.5 - 3.4 - - - - - - -
23/06:00am 9.5 SSW 4 6 1020.2 - 3.4 - - - - - - -
23/05:30am 10.4 WSW 11 13 1020.4 - 3.4 - - - - - - -
23/05:00am 10.0 WSW 11 15 1020.3 - 3.4 - - - - - - -
23/04:30am 9.7 WSW 12 18 1020.5 - 3.4 - - - - - - -
23/04:00am 9.2 SSE 8 10 1020.7 - 3.4 - - - - - - -
23/03:30am 9.6 SSW 9 13 1020.9 - 3.4 - - - - - - -
23/03:00am 10.0 SW 7 10 1020.8 - 3.4 Rain - - - - - -
23/02:30am 9.9 SSW 11 14 1021.0 - 2.0 - - - - - - -
23/02:00am 10.2 SSW 9 15 1020.9 - 1.8 - - - - - - -
23/01:30am 10.5 SW 16 22 1021.0 - 1.6 - - - - - - -
23/01:00am 10.7 SSW 13 21 1020.9 - 1.6 - - - - - - -
23/12:30am 10.8 SSW 10 15 1020.9 - 1.6 - - - - - - -
23/12:00am 11.1 SW 11 15 1021.0 - 1.6 - - - - - - -
 
Date/Time
WST
Temp

°C
Wind Pressure Rain
since 9am
mm
Weather Cloud Vis
km
Sea
Height
m
Swell
Dir
 
Speed
knots
Gust
knots
hPa Trend Height
m
Period
s
Dir
22/11:30pm 11.0 SW 13 18 1021.1 - 1.6 - - - - - - -
22/11:00pm 10.7 SSW 13 19 1021.1 - 1.6 - - - - - - -
22/10:30pm 10.7 SW 15 21 1021.0 - 1.6 - - - - - - -
22/10:00pm 10.4 SSW 13 15 1020.9 - 1.6 - - - - - - -
22/09:30pm 9.7 SSW 12 19 1021.0 - 1.6 - - - - - - -
22/09:00pm 9.9 SSW 15 22 1020.9 - 1.4 Recent precip. - - - - - -
22/08:30pm 9.8 SW 15 19 1020.8 - 0.8 - - - - - - -
22/08:00pm 10.4 S 16 22 1020.3 - 0.2 - - - - - - -
22/07:30pm 12.0 SSW 15 21 1020.2 - 0.0 - - - - - - -
22/07:00pm 12.1 SSW 16 23 1019.6 - 0.0 - - - - - - -
22/06:30pm 12.2 SW 15 21 1019.2 - 0.0 - - - - - - -
22/06:00pm 11.9 SW 15 23 1018.8 - 0.0 - - - - - - -
22/05:31pm 12.3 SW 16 26 1018.4 - 0.0 - - - - - - -
22/05:30pm 12.3 SW 17 26 1018.3 - 0.0 - - - - - - -
22/05:09pm 12.4 SW 19 29 1018.0 - 0.0 - - - - - - -
22/05:00pm 12.4 SW 18 24 1017.9 - 0.0 - - - - - - -
22/04:30pm 13.0 SW 19 26 1017.6 - 0.0 - - - - - - -
22/04:00pm 13.0 SW 18 26 1017.3 - 0.0 - - - - - - -
22/03:30pm 13.8 SW 20 26 1016.9 - 0.0 - - - - - - -
22/03:00pm 14.2 SW 19 27 1016.6 - 0.0 - - - - - - -
22/02:30pm 12.8 SW 19 26 1016.4 - 0.0 - - - - - - -
22/02:00pm 14.2 SW 20 28 1016.2 - 0.0 - - - - - - -
22/01:30pm 14.6 SW 20 26 1016.1 - 0.0 - - - - - - -
22/01:01pm 14.1 SW 21 31 1016.0 - 0.0 - - - - - - -
22/01:00pm 14.0 SW 22 31 1016.1 - 0.0 - - - - - - -
22/12:30pm 13.5 SW 19 30 1016.1 - 0.0 - - - - - - -
22/12:05pm 14.5 SW 19 29 1016.3 - 0.0 - - - - - - -
22/12:00pm 14.5 SSW 18 26 1016.4 - 0.0 - - - - - - -
22/11:30am 14.3 SW 22 32 1016.4 - 0.0 - - - - - - -
22/11:26am 13.7 SW 22 32 1016.4 - 0.0 - - - - - - -
22/11:00am 13.0 SW 19 26 1016.4 - 0.0 - - - - - - -
22/10:42am 12.3 SW 19 29 1016.5 - 0.0 - - - - - - -
22/10:30am 13.8 SW 22 29 1016.4 - 0.0 - - - - - - -
22/10:12am 13.3 SW 23 33 1016.3 - 0.0 - - - - - - -
22/10:00am 12.8 SW 21 30 1016.2 - 0.0 - - - - - - -
22/09:38am 12.3 SW 20 31 1015.8 - 0.0 - - - - - - -
22/09:30am 11.4 SSW 24 32 1015.9 - 0.0 - - - - - - -
22/09:10am 11.9 SW 21 32 1015.7 - 0.0 - - - - - - -
22/09:00am 12.4 SW 20 28 1015.7 - 15.6 Rain - - - - - -
22/08:40am 11.2 SW 19 30 1015.6 - 15.4 - - - - - - -
22/08:30am 10.8 SW 19 27 1015.4 - 15.4 - - - - - - -
22/08:19am 10.8 SW 24 34 1015.1 - 15.4 - - - - - - -
22/08:00am 10.8 SW 25 32 1014.8 - 15.4 - - - - - - -
22/07:48am 11.0 SW 21 31 1014.5 - 15.4 - - - - - - -
22/07:34am 10.1 S 21 26 1014.5 - 15.4 - - - - - - -
22/07:30am 10.2 SW 18 29 1014.5 - 15.4 - - - - - - -
22/07:00am 9.5 SW 21 31 1014.4 - 14.0 - - - - - - -
22/06:41am 11.1 SSW 20 30 1013.8 - 14.0 - - - - - - -
22/06:30am 10.9 SW 19 26 1013.7 - 14.0 - - - - - - -
22/06:00am 10.8 SW 20 29 1013.4 - 13.8 - - - - - - -
22/05:54am 11.5 SW 19 29 1013.3 - 13.8 - - - - - - -
22/05:30am 11.3 SW 18 24 1013.1 - 13.8 - - - - - - -
22/05:00am 10.8 SSW 16 25 1013.0 - 13.8 - - - - - - -
22/04:57am 10.7 SSW 15 25 1013.0 - 13.8 - - - - - - -
22/04:30am 10.9 SW 20 28 1012.7 - 13.8 - - - - - - -
22/04:01am 10.2 SSW 17 27 1012.5 - 13.6 - - - - - - -
22/04:00am 10.1 SSW 18 27 1012.4 - 13.6 - - - - - - -
22/03:43am 10.3 SSW 17 27 1012.1 - 13.4 - - - - - - -
22/03:30am 11.1 SW 19 26 1012.1 - 13.4 - - - - - - -
22/03:00am 11.3 SW 19 26 1011.7 - 13.4 - - - - - - -
22/02:30am 10.9 SSW 17 23 1011.7 - 13.4 - - - - - - -
22/02:17am 11.4 SW 18 29 1011.4 - 13.4 - - - - - - -
22/02:00am 11.1 SSW 19 25 1011.2 - 13.4 - - - - - - -
22/01:30am 11.2 SW 19 29 1011.1 - 13.2 - - - - - - -
22/01:28am 11.5 SW 17 29 1011.0 - 13.0 - - - - - - -
22/01:00am 10.8 SSW 17 25 1011.0 - 13.0 - - - - - - -
22/12:30am 11.3 SW 18 29 1011.2 - 13.0 - - - - - - -
22/12:12am 11.0 SSW 15 26 1011.4 - 13.0 - - - - - - -
22/12:00am 11.0 SSW 12 18 1011.4 - 13.0 Recent precip. - - - - - -
 
Date/Time
WST
Temp

°C
Wind Pressure Rain
since 9am
mm
Weather Cloud Vis
km
Sea
Height
m
Swell
Dir
 
Speed
knots
Gust
knots
hPa Trend Height
m
Period
s
Dir
21/11:30pm 10.6 SSW 13 19 1011.4 - 12.6 - - - - - - -
21/11:00pm 10.6 SSW 12 16 1011.6 - 12.6 - - - - - - -
21/10:36pm 10.9 SW 22 32 1011.6 - 12.2 - - - - - - -
21/10:30pm 11.4 SW 23 32 1011.4 - 11.8 - - - - - - -
21/10:25pm 11.5 SW 19 29 1011.2 - 11.4 - - - - - - -
21/10:23pm 11.3 SW 17 26 1011.3 - 11.4 - - - - - - -
21/10:00pm 11.1 WSW 12 16 1011.3 - 11.0 - - - - - - -
21/09:40pm 11.0 WSW 15 23 1011.1 - 10.6 - - - - - - -
21/09:30pm 10.8 SSW 4 11 1011.4 - 10.6 - - - - - - -
21/09:00pm 10.6 WSW 3 4 1011.5 - 10.6 Recent precip. - - - - - -
21/08:30pm 10.7 SW 5 6 1011.7 - 10.6 - - - - - - -
21/08:00pm 10.8 WSW 15 20 1011.8 - 8.8 - - - - - - -
21/07:30pm 11.5 WNW 9 12 1011.5 - 5.6 - - - - - - -
21/07:00pm 11.3 W 11 14 1010.8 - 5.0 - - - - - - -
21/06:30pm 11.2 W 14 19 1010.8 - 5.0 - - - - - - -
21/06:00pm 11.1 W 20 25 1010.7 - 5.0 Rain - - - - - -
21/05:30pm 11.9 W 24 31 1010.7 - 4.6 - - - - - - -
21/05:00pm 12.4 W 22 25 1010.6 - 4.2 - - - - - - -
21/04:58pm 12.5 W 21 25 1010.7 - 4.2 - - - - - - -
21/04:30pm 12.5 WNW 17 26 1010.5 - 3.0 - - - - - - -
21/04:04pm 12.7 WNW 20 30 1010.5 - 1.0 - - - - - - -
21/04:00pm 12.9 WNW 20 27 1010.5 - 0.8 - - - - - - -
21/03:32pm 14.0 WNW 19 31 1010.6 - 0.0 - - - - - - -
21/03:30pm 13.8 WNW 19 26 1010.5 - 0.0 - - - - - - -
21/03:21pm 14.0 WNW 21 31 1010.6 - 0.0 - - - - - - -
21/03:16pm 14.3 WNW 23 31 1010.5 - 0.0 - - - - - - -
21/03:00pm 15.6 NNW 21 27 1010.4 - 0.0 - - - - - - -
21/02:43pm 16.6 NNW 22 32 1010.6 - 0.0 - - - - - - -
21/02:30pm 15.8 NNW 23 30 1010.5 - 0.0 - - - - - - -
21/02:00pm 16.8 NW 21 28 1010.7 - 0.0 - - - - - - -
21/01:50pm 17.4 NW 21 32 1010.9 - 0.0 - - - - - - -
21/01:30pm 17.1 NNW 23 31 1011.2 - 0.0 - - - - - - -
21/01:00pm 16.1 NNW 19 26 1011.6 - 0.0 - - - - - - -
21/12:30pm 17.1 NNW 21 27 1012.2 - 0.0 - - - - - - -
21/12:00pm 16.8 NW 20 31 1012.7 - 0.0 - - - - - - -
21/11:51am 16.6 NW 19 31 1012.9 - 0.0 - - - - - - -
21/11:30am 17.5 NW 18 25 1013.1 - 0.0 - - - - - - -
21/11:00am 17.0 NW 19 24 1013.5 - 0.0 - - - - - - -
21/10:50am 16.8 NW 19 29 1013.6 - 0.0 - - - - - - -
21/10:30am 16.1 NNW 21 27 1013.8 - 0.0 - - - - - - -
21/10:03am 15.6 NNW 19 29 1014.2 - 0.0 - - - - - - -
21/10:00am 15.5 NNW 19 25 1014.2 - 0.0 - - - - - - -
21/09:30am 14.6 NNW 19 26 1014.3 - 0.0 - - - - - - -
21/09:00am 13.5 NNW 18 24 1014.1 - 6.6 - - - - - - -
21/08:30am 13.7 NNW 18 25 1014.1 - 6.6 - - - - - - -
21/08:00am 12.8 NW 16 23 1014.1 - 6.6 - - - - - - -
21/07:30am 12.1 NNW 16 23 1014.2 - 6.6 - - - - - - -
21/07:00am 12.2 NNW 14 19 1014.2 - 5.8 - - - - - - -
21/06:30am 13.3 NW 15 20 1014.3 - 5.2 - - - - - - -
21/06:00am 12.9 NW 11 15 1014.3 - 5.2 - - - - - - -
21/05:30am 12.6 NW 11 16 1014.4 - 5.2 - - - - - - -
21/05:00am 12.0 NNW 9 12 1014.4 - 5.2 - - - - - - -
21/04:30am 11.5 NW 9 11 1014.4 - 5.2 - - - - - - -
21/04:00am 11.1 NW 8 10 1014.6 - 5.2 - - - - - - -
21/03:30am 11.3 WNW 10 15 1014.9 - 5.2 - - - - - - -
21/03:00am 10.7 W 9 11 1015.1 - 5.2 - - - - - - -
21/02:30am 10.8 W 10 13 1015.2 - 5.2 - - - - - - -
21/02:00am 11.3 WSW 11 15 1015.3 - 5.2 - - - - - - -
21/01:30am 11.2 WSW 11 15 1015.4 - 5.2 - - - - - - -
21/01:00am 11.5 WSW 13 16 1015.7 - 5.2 - - - - - - -
21/12:30am 12.1 WSW 11 15 1015.8 - 5.2 - - - - - - -
21/12:00am 12.1 SW 12 14 1015.9 - 5.2 - - - - - - -
 
Date/Time
WST
Temp

°C
Wind Pressure Rain
since 9am
mm
Weather Cloud Vis
km
Sea
Height
m
Swell
Dir
 
Speed
knots
Gust
knots
hPa Trend Height
m
Period
s
Dir
20/11:30pm 12.4 SW 10 14 1016.1 - 5.2 - - - - - - -
20/11:00pm 12.4 SW 12 17 1016.3 - 5.2 - - - - - - -
20/10:30pm 12.2 SW 13 18 1016.4 - 5.2 - - - - - - -
20/10:00pm 12.5 SW 12 15 1016.6 - 5.2 - - - - - - -
20/09:30pm 12.5 SW 12 16 1016.6 - 5.2 - - - - - - -
20/09:00pm 12.3 SW 12 15 1016.4 - 5.2 - - - - - - -
20/08:30pm 12.7 SSW 11 15 1016.3 - 5.2 - - - - - - -
20/08:00pm 12.7 SW 13 17 1016.2 - 5.2 - - - - - - -

Other Formats:

Comma delimited format used in spreadsheet applications
http://www.bom.gov.au/fwo/IDW60701/IDW60701.94600.axf

JavaScript Object Notation format (JSON) in row-major order
http://www.bom.gov.au/fwo/IDW60701/IDW60701.94600.json